Time;durP1;ratioP1;P1;durP2;ratioP2;P2;SDS_P1;SDS_P2;PMS_P1;PMS_P2;Temp;Humidity;BMP_temperature;BMP_pressure;BME280_temperature;BME280_humidity;BME280_pressure;Samples;Min_cycle;Max_cycle;Signal;HPM_P1;HPM_P2
2023/03/12 00:03:49;;;;;;;10.67;5.00;;;-2.40;99.90;;;;;;8362225;28;20188;-64
2023/03/12 00:07:51;;;;;;;5.40;4.00;;;-2.40;99.90;;;;;;8368667;28;20185;-63
2023/03/12 00:11:52;;;;;;;6.67;4.27;;;-2.40;99.90;;;;;;8366648;28;20309;-64
2023/03/12 00:15:53;;;;;;;7.03;4.27;;;-2.30;99.90;;;;;;8366527;28;20182;-64
2023/03/12 00:19:53;;;;;;;11.57;4.83;;;-2.30;99.90;;;;;;8364986;28;20201;-65
2023/03/12 00:23:54;;;;;;;7.77;4.73;;;-2.40;99.90;;;;;;8365773;28;20232;-64
2023/03/12 00:27:55;;;;;;;6.47;3.77;;;-2.30;99.90;;;;;;8365768;28;20182;-63
2023/03/12 00:31:56;;;;;;;6.60;4.60;;;-2.30;99.90;;;;;;8364863;28;20530;-64
2023/03/12 00:35:59;;;;;;;8.10;4.20;;;-2.30;99.90;;;;;;8369464;28;20205;-65
2023/03/12 00:40:00;;;;;;;6.23;4.20;;;-2.30;99.90;;;;;;8367845;28;20200;-63
2023/03/12 00:44:01;;;;;;;3.87;3.23;;;-2.30;99.90;;;;;;8364236;28;20205;-64
2023/03/12 00:48:02;;;;;;;9.83;3.80;;;-2.30;99.90;;;;;;8359162;28;20179;-64
2023/03/12 00:52:04;;;;;;;5.77;3.10;;;-2.40;99.90;;;;;;8367198;28;20208;-63
2023/03/12 00:56:05;;;;;;;6.27;3.20;;;-2.40;99.90;;;;;;8364540;28;20193;-64
2023/03/12 01:00:09;;;;;;;6.23;3.33;;;-2.40;99.90;;;;;;8366474;28;20177;-64
2023/03/12 01:04:10;;;;;;;4.70;3.00;;;-2.40;99.90;;;;;;8361609;28;20187;-64
2023/03/12 01:08:11;;;;;;;5.13;2.87;;;-2.40;99.90;;;;;;8366806;28;20186;-64
2023/03/12 01:12:12;;;;;;;5.83;3.20;;;-2.40;99.90;;;;;;8361815;28;20233;-64
2023/03/12 01:16:13;;;;;;;3.10;2.67;;;-2.40;99.90;;;;;;8365446;28;20183;-65
2023/03/12 01:20:14;;;;;;;5.73;3.13;;;-2.40;99.90;;;;;;8364997;28;20192;-64
2023/03/12 01:24:15;;;;;;;4.50;2.70;;;-2.30;99.90;;;;;;8376790;28;20210;-65
2023/03/12 01:28:15;;;;;;;5.73;3.20;;;-2.20;99.90;;;;;;8363132;28;20190;-65
2023/03/12 01:32:17;;;;;;;4.57;3.20;;;-2.10;99.90;;;;;;8364792;28;20217;-64
2023/03/12 01:36:19;;;;;;;6.00;2.83;;;-1.90;99.90;;;;;;8365343;28;20209;-64
2023/03/12 01:40:24;;;;;;;6.00;3.13;;;-1.70;99.90;;;;;;8365748;28;20198;-64
2023/03/12 01:44:25;;;;;;;4.80;2.87;;;-1.70;99.90;;;;;;8378019;28;20283;-63
2023/03/12 01:48:35;;;;;;;4.13;2.63;;;-1.60;99.90;;;;;;8361288;28;20190;-65
2023/03/12 01:52:37;;;;;;;4.83;3.03;;;-1.50;99.90;;;;;;8363052;28;20219;-63
2023/03/12 01:56:38;;;;;;;3.37;3.00;;;-1.40;70.60;;;;;;8361406;28;20184;-63
2023/03/12 02:00:39;;;;;;;3.80;2.83;;;-1.30;33.50;;;;;;8363979;28;20175;-64
2023/03/12 02:04:44;;;;;;;3.77;3.20;;;-1.30;7.30;;;;;;8362456;28;20213;-65
2023/03/12 02:08:47;;;;;;;3.73;2.50;;;-1.30;1.00;;;;;;8380454;28;20185;-64
2023/03/12 02:12:47;;;;;;;6.30;3.10;;;-1.20;1.00;;;;;;8362510;28;20297;-64
2023/03/12 02:16:48;;;;;;;4.13;2.90;;;-1.20;1.00;;;;;;8364763;28;20185;-64
2023/03/12 02:20:55;;;;;;;5.53;3.20;;;-1.20;1.00;;;;;;8368392;28;20186;-64
2023/03/12 02:25:29;;;;;;;5.73;3.07;;;-1.30;1.00;;;;;;8359696;28;20189;-64
2023/03/12 02:29:33;;;;;;;6.10;2.70;;;-1.30;1.00;;;;;;8364589;28;20247;-64
2023/03/12 02:33:33;;;;;;;5.93;2.90;;;-1.40;1.00;;;;;;8361179;28;20208;-64
2023/03/12 02:37:34;;;;;;;6.23;2.70;;;-1.50;1.00;;;;;;8361465;28;20210;-65
2023/03/12 02:41:57;;;;;;;5.70;2.87;;;-1.60;1.00;;;;;;8359647;28;21509;-64
2023/03/12 02:45:58;;;;;;;4.50;2.73;;;-1.70;1.00;;;;;;8362387;28;20212;-64
2023/03/12 02:49:58;;;;;;;5.00;2.83;;;-1.70;1.00;;;;;;8362806;28;20227;-63
2023/03/12 02:53:59;;;;;;;4.80;2.93;;;-1.80;1.00;;;;;;8362957;28;20274;-64
2023/03/12 02:58:00;;;;;;;5.57;3.20;;;-1.90;1.00;;;;;;8358255;28;20348;-64
2023/03/12 03:02:01;;;;;;;4.90;2.83;;;-2.00;7.20;;;;;;8364528;28;20191;-65
2023/03/12 03:06:02;;;;;;;4.83;2.83;;;-2.00;9.40;;;;;;8361847;28;20202;-63
2023/03/12 03:10:04;;;;;;;4.80;2.80;;;-2.10;24.90;;;;;;8367710;28;20283;-64
2023/03/12 03:14:05;;;;;;;5.23;2.63;;;-2.10;23.60;;;;;;8361055;28;20179;-65
2023/03/12 03:18:06;;;;;;;4.33;2.47;;;-2.10;41.70;;;;;;8361095;28;20233;-64
2023/03/12 03:22:07;;;;;;;6.30;2.60;;;-2.20;42.40;;;;;;8364403;28;20198;-64
2023/03/12 03:26:09;;;;;;;6.83;3.00;;;-2.20;54.10;;;;;;8365797;28;20188;-64
2023/03/12 03:30:10;;;;;;;4.43;2.97;;;-2.20;89.50;;;;;;8369131;28;20187;-64
2023/03/12 03:34:11;;;;;;;3.33;2.57;;;-2.30;89.90;;;;;;8369204;28;20562;-64
2023/03/12 03:38:12;;;;;;;6.10;2.70;;;-2.30;96.90;;;;;;8369408;28;20525;-64
2023/03/12 03:42:13;;;;;;;4.10;2.53;;;-2.30;99.90;;;;;;8370231;28;20228;-64
2023/03/12 03:46:14;;;;;;;4.23;2.30;;;-2.30;99.10;;;;;;8365197;28;20189;-64
2023/03/12 03:50:15;;;;;;;7.37;2.90;;;-2.30;96.90;;;;;;8367803;28;20187;-64
2023/03/12 03:54:17;;;;;;;3.80;2.07;;;-2.30;97.80;;;;;;8371136;28;20235;-64
2023/03/12 03:58:17;;;;;;;5.73;2.83;;;-2.30;74.40;;;;;;8364171;28;20182;-64
2023/03/12 04:02:18;;;;;;;4.53;2.47;;;-2.30;61.20;;;;;;8367665;28;20190;-65
2023/03/12 04:06:19;;;;;;;3.63;2.37;;;-2.30;71.10;;;;;;8363700;28;20182;-65
2023/03/12 04:10:22;;;;;;;5.10;2.30;;;-2.30;66.00;;;;;;8368443;28;20225;-65
2023/03/12 04:14:23;;;;;;;3.90;2.30;;;-2.40;70.70;;;;;;8367008;28;20184;-64
2023/03/12 04:18:24;;;;;;;4.07;2.10;;;-2.40;79.50;;;;;;8377936;28;20185;-65
2023/03/12 04:22:25;;;;;;;7.83;2.33;;;-2.30;61.90;;;;;;8379859;28;20210;-64
2023/03/12 04:26:26;;;;;;;4.67;2.03;;;-2.30;58.70;;;;;;8367669;28;20185;-65
2023/03/12 04:30:26;;;;;;;3.53;2.37;;;-2.20;25.30;;;;;;8370867;28;20199;-65
2023/03/12 04:34:27;;;;;;;3.17;1.87;;;-2.10;1.00;;;;;;8366365;28;20197;-64
2023/03/12 04:38:29;;;;;;;4.10;2.13;;;-2.20;1.00;;;;;;8363601;28;20238;-64
2023/03/12 04:42:30;;;;;;;4.70;1.93;;;-2.20;1.00;;;;;;8364952;28;20280;-63
2023/03/12 04:46:31;;;;;;;3.27;2.13;;;-2.20;1.00;;;;;;8379117;28;20276;-64
2023/03/12 04:50:31;;;;;;;2.67;2.07;;;-2.20;1.00;;;;;;8364585;28;20561;-65
2023/03/12 04:54:33;;;;;;;4.40;2.13;;;-2.20;1.00;;;;;;8363131;28;20210;-64
2023/03/12 04:58:34;;;;;;;7.53;2.53;;;-2.20;1.00;;;;;;8367205;28;20182;-65
2023/03/12 05:02:36;;;;;;;4.97;1.83;;;-2.20;1.00;;;;;;8365020;28;20184;-65
2023/03/12 05:06:37;;;;;;;4.13;1.57;;;-2.20;1.00;;;;;;8363145;28;20478;-64
2023/03/12 05:10:38;;;;;;;4.83;2.17;;;-2.30;1.00;;;;;;8363148;28;20284;-64
2023/03/12 05:14:39;;;;;;;3.13;1.70;;;-2.30;1.00;;;;;;8365263;28;20209;-64
2023/03/12 05:18:40;;;;;;;2.30;1.80;;;-2.30;1.00;;;;;;8367795;28;20272;-64
2023/03/12 05:22:41;;;;;;;2.93;1.87;;;-2.30;1.00;;;;;;8365742;28;20284;-65
2023/03/12 05:26:42;;;;;;;3.63;2.10;;;-2.30;1.00;;;;;;8367368;28;20182;-65
2023/03/12 05:30:43;;;;;;;3.83;1.87;;;-2.20;1.00;;;;;;8365493;28;20213;-71
2023/03/12 05:34:44;;;;;;;2.50;1.90;;;-2.10;1.00;;;;;;8373923;28;20209;-71
2023/03/12 05:38:45;;;;;;;3.97;1.70;;;-2.00;1.00;;;;;;8371844;28;20192;-70
2023/03/12 05:42:46;;;;;;;3.33;2.03;;;-1.90;1.00;;;;;;8368045;28;20207;-70
2023/03/12 05:46:46;;;;;;;2.03;1.70;;;-1.80;1.00;;;;;;8365504;28;20234;-71
2023/03/12 05:50:47;;;;;;;8.07;2.07;;;-1.80;1.00;;;;;;8367835;28;20203;-70
2023/03/12 05:54:48;;;;;;;4.33;2.17;;;-1.70;1.00;;;;;;8367465;28;20192;-71
2023/03/12 05:58:49;;;;;;;3.03;1.60;;;-1.50;1.00;;;;;;8373659;28;20185;-70
2023/03/12 06:02:50;;;;;;;2.80;1.43;;;-1.40;38.40;;;;;;8371295;28;20190;-71
2023/03/12 06:06:51;;;;;;;5.20;1.93;;;-1.30;1.00;;;;;;8366758;28;20184;-71
2023/03/12 06:10:53;;;;;;;2.07;1.60;;;-1.10;99.90;;;;;;8367903;28;20215;-71
2023/03/12 06:14:56;;;;;;;5.77;1.80;;;-1.10;99.90;;;;;;8371852;28;20551;-70
2023/03/12 06:18:58;;;;;;;2.67;1.83;;;-1.10;99.90;;;;;;8370041;28;20200;-71
2023/03/12 06:22:59;;;;;;;2.97;1.63;;;-1.10;99.90;;;;;;8375849;28;20181;-72
2023/03/12 06:27:00;;;;;;;3.17;1.77;;;-1.00;99.90;;;;;;8375156;28;20197;-72
2023/03/12 06:31:01;;;;;;;2.63;1.73;;;-0.90;99.90;;;;;;8379755;28;20272;-71
2023/03/12 06:35:04;;;;;;;1.57;1.47;;;-0.80;99.90;;;;;;8372665;28;20200;-71
2023/03/12 06:39:05;;;;;;;2.43;1.70;;;-0.60;99.90;;;;;;8375860;28;20178;-72
2023/03/12 06:43:10;;;;;;;3.53;1.80;;;-0.60;99.90;;;;;;8380485;28;20200;-72
2023/03/12 06:47:11;;;;;;;2.30;1.50;;;-0.50;99.90;;;;;;8373254;28;20186;-72
2023/03/12 06:51:14;;;;;;;3.13;1.80;;;-0.40;99.90;;;;;;8374007;28;20430;-72
2023/03/12 06:55:15;;;;;;;4.67;1.90;;;-0.30;99.90;;;;;;8376012;28;20253;-72
2023/03/12 06:59:17;;;;;;;2.30;1.70;;;-0.20;99.90;;;;;;8386476;28;20196;-72
2023/03/12 07:03:18;;;;;;;2.90;1.70;;;-0.20;99.90;;;;;;8381856;28;20235;-73
2023/03/12 07:07:19;;;;;;;2.47;1.33;;;0.00;99.90;;;;;;8377898;28;20397;-73
2023/03/12 07:11:20;;;;;;;6.03;1.80;;;0.20;99.90;;;;;;8379847;28;20209;-73
2023/03/12 07:15:21;;;;;;;3.17;1.80;;;0.30;99.90;;;;;;8374532;28;20213;-72
2023/03/12 07:19:22;;;;;;;2.87;1.50;;;0.50;99.90;;;;;;8371236;28;20190;-72
2023/03/12 07:23:23;;;;;;;3.40;1.30;;;0.60;90.00;;;;;;8364709;28;20193;-72
2023/03/12 07:27:24;;;;;;;2.10;1.30;;;0.80;54.20;;;;;;8363758;28;20186;-71
2023/03/12 07:31:25;;;;;;;2.37;1.47;;;0.90;85.80;;;;;;8369162;28;20262;-72
2023/03/12 07:35:26;;;;;;;3.17;1.40;;;1.00;30.40;;;;;;8361099;28;20206;-71
2023/03/12 07:39:26;;;;;;;3.50;1.60;;;1.10;43.80;;;;;;8356396;28;20293;-72
2023/03/12 07:43:27;;;;;;;2.97;1.70;;;1.20;18.80;;;;;;8358924;28;20204;-71
2023/03/12 07:47:28;;;;;;;2.40;1.30;;;1.30;18.00;;;;;;8357279;28;20247;-71
2023/03/12 07:51:29;;;;;;;1.73;1.37;;;1.40;11.20;;;;;;8363488;28;20213;-70
2023/03/12 07:55:31;;;;;;;3.50;1.50;;;1.50;16.20;;;;;;8361810;28;20181;-71
2023/03/12 07:59:32;;;;;;;2.70;1.43;;;1.50;17.50;;;;;;8362267;28;20190;-71
2023/03/12 08:03:33;;;;;;;2.93;1.67;;;1.50;1.00;;;;;;8359273;28;20232;-70
2023/03/12 08:07:35;;;;;;;4.87;2.50;;;1.60;34.50;;;;;;8358810;28;20189;-70
2023/03/12 08:11:36;;;;;;;3.30;1.90;;;1.80;30.10;;;;;;8369277;28;20208;-70
2023/03/12 08:15:37;;;;;;;3.13;1.67;;;1.90;15.00;;;;;;8364780;28;20276;-70
2023/03/12 08:19:38;;;;;;;4.00;1.80;;;1.90;3.60;;;;;;8365937;28;20185;-68
2023/03/12 08:23:38;;;;;;;2.20;1.53;;;2.00;1.00;;;;;;8365252;28;20197;-69
2023/03/12 08:27:40;;;;;;;9.10;1.93;;;1.90;1.00;;;;;;8369980;28;20189;-70
2023/03/12 08:31:41;;;;;;;2.87;1.33;;;2.10;2.40;;;;;;8371739;28;20208;-67
2023/03/12 08:35:42;;;;;;;5.83;2.00;;;2.30;1.00;;;;;;8363861;28;20199;-67
2023/03/12 08:39:43;;;;;;;2.17;1.77;;;2.50;1.00;;;;;;8363263;28;20215;-68
2023/03/12 08:43:44;;;;;;;3.50;1.70;;;3.00;1.00;;;;;;8370499;28;20201;-67
2023/03/12 08:47:45;;;;;;;5.23;2.27;;;3.10;1.00;;;;;;8380485;28;20201;-66
2023/03/12 08:51:46;;;;;;;6.87;1.30;;;3.10;1.00;;;;;;8369883;28;20236;-71
2023/03/12 08:56:05;;;;;;;1.90;1.30;;;3.40;1.00;;;;;;8367537;28;20188;-73
2023/03/12 09:00:13;;;;;;;3.40;1.67;;;3.40;1.00;;;;;;8370438;28;20181;-74
2023/03/12 09:04:19;;;;;;;2.00;1.40;;;3.60;1.00;;;;;;8374397;28;20410;-72
2023/03/12 09:08:50;;;;;;;5.43;1.37;;;3.70;1.00;;;;;;8377811;28;20234;-72
2023/03/12 09:13:45;;;;;;;4.17;1.90;;;3.80;1.00;;;;;;8366726;28;20308;-75
2023/03/12 09:17:49;;;;;;;4.10;1.80;;;4.30;1.00;;;;;;8349189;28;20190;-72
2023/03/12 09:21:53;;;;;;;4.43;1.40;;;4.90;1.00;;;;;;8357539;28;20197;-74
2023/03/12 09:25:54;;;;;;;2.67;1.77;;;5.60;1.00;;;;;;8334660;28;20241;-72
2023/03/12 09:29:58;;;;;;;2.87;1.60;;;6.10;1.00;;;;;;8342775;28;20204;-73
2023/03/12 09:44:19;;;;;;;3.77;1.90;;;5.70;1.00;;;;;;8364035;28;20265;-74
2023/03/12 09:48:35;;;;;;;3.67;1.67;;;5.30;1.00;;;;;;8370745;28;20308;-74
2023/03/12 09:57:54;;;;;;;4.30;1.60;;;5.80;1.00;;;;;;8375346;28;20196;-74
2023/03/12 10:02:50;;;;;;;4.93;1.83;;;6.50;1.00;;;;;;8383662;28;20196;-73
2023/03/12 10:06:58;;;;;;;3.30;1.60;;;7.00;1.00;;;;;;8389470;28;20193;-75
2023/03/12 10:11:12;;;;;;;3.50;1.93;;;6.90;1.00;;;;;;8402853;28;20224;-73
2023/03/12 10:16:03;;;;;;;;;;;;;;;;;;;;;
2023/03/12 10:25:34;;;;;;;2.00;1.30;;;7.20;1.00;;;;;;8383758;28;20749;-72
2023/03/12 10:40:14;;;;;;;4.23;1.43;;;7.30;1.00;;;;;;8383855;28;20204;-73
2023/03/12 10:44:24;;;;;;;5.00;1.83;;;7.50;1.00;;;;;;8376335;28;20240;-74
2023/03/12 12:23:03;;;;;;;2.47;1.20;;;7.20;1.00;;;;;;8394610;28;20211;-72
2023/03/12 12:27:27;;;;;;;2.53;1.47;;;7.10;1.00;;;;;;8393729;28;20568;-73
2023/03/12 12:31:43;;;;;;;3.30;1.30;;;7.50;1.00;;;;;;8404875;28;20208;-74
2023/03/12 12:35:44;;;;;;;2.27;1.67;;;7.90;1.00;;;;;;8395249;28;20257;-72
2023/03/12 12:40:08;;;;;;;3.67;2.00;;;8.20;1.00;;;;;;8393667;28;20181;-72
2023/03/12 12:44:20;;;;;;;2.87;1.80;;;8.60;1.00;;;;;;8394485;28;20206;-74
2023/03/12 12:48:28;;;;;;;3.43;1.80;;;8.90;1.00;;;;;;8397547;28;20205;-74
2023/03/12 12:52:29;;;;;;;6.27;1.90;;;8.90;1.00;;;;;;8395141;28;20179;-75
2023/03/12 12:56:47;;;;;;;3.23;1.90;;;8.90;1.00;;;;;;8391981;28;20270;-73
2023/03/12 13:01:00;;;;;;;3.60;1.90;;;9.10;1.00;;;;;;8396273;28;20289;-76
2023/03/12 13:05:01;;;;;;;2.20;1.73;;;9.10;1.00;;;;;;8392865;28;20191;-73
2023/03/12 13:09:14;;;;;;;3.30;1.60;;;9.00;1.00;;;;;;8395534;28;20219;-74
2023/03/12 13:13:22;;;;;;;5.97;1.40;;;8.90;1.00;;;;;;8398732;28;20224;-73
2023/03/12 13:17:23;;;;;;;3.60;1.50;;;8.70;1.00;;;;;;8395900;28;20190;-73
2023/03/12 13:21:42;;;;;;;3.17;1.50;;;8.60;1.00;;;;;;8391055;28;20191;-72
2023/03/12 13:26:09;;;;;;;3.83;1.90;;;8.70;1.00;;;;;;8394483;28;20218;-73
2023/03/12 13:30:31;;;;;;;2.83;1.77;;;8.60;1.00;;;;;;8395963;28;20189;-72
2023/03/12 13:34:44;;;;;;;5.10;1.97;;;8.50;1.00;;;;;;8392309;28;20194;-74
2023/03/12 13:39:20;;;;;;;2.27;1.40;;;8.40;1.00;;;;;;8394754;28;20558;-73
2023/03/12 13:43:36;;;;;;;3.13;1.43;;;8.60;1.00;;;;;;8393377;28;20210;-72
2023/03/12 13:47:41;;;;;;;3.47;1.20;;;8.70;1.00;;;;;;8398917;28;20207;-72
2023/03/12 13:52:19;;;;;;;3.67;1.37;;;8.80;1.00;;;;;;8393506;28;20256;-73
2023/03/12 13:56:27;;;;;;;4.13;1.70;;;8.70;1.00;;;;;;8398180;28;20243;-72
2023/03/12 14:00:30;;;;;;;3.03;1.17;;;8.60;1.00;;;;;;8394316;28;20194;-72
2023/03/12 14:04:39;;;;;;;2.50;1.40;;;8.80;1.00;;;;;;8391266;28;20179;-73
2023/03/12 14:09:05;;;;;;;3.00;1.80;;;8.60;1.00;;;;;;8392618;28;20210;-72
2023/03/12 14:13:21;;;;;;;2.33;1.30;;;8.50;1.00;;;;;;8394239;28;20216;-73
2023/03/12 14:17:31;;;;;;;3.27;1.80;;;8.50;1.00;;;;;;8405476;28;20185;-72
2023/03/12 14:21:37;;;;;;;4.57;1.07;;;8.60;1.00;;;;;;8392821;28;20172;-73
2023/03/12 14:25:42;;;;;;;1.87;1.10;;;8.80;1.00;;;;;;8385935;28;20183;-73
2023/03/12 14:30:10;;;;;;;2.77;1.40;;;8.70;1.00;;;;;;8391244;28;20187;-75
2023/03/12 14:34:11;;;;;;;1.57;1.30;;;8.70;1.00;;;;;;8400345;28;20280;-73
2023/03/12 14:38:24;;;;;;;3.03;1.50;;;8.60;1.00;;;;;;8391692;28;20204;-73
2023/03/12 14:42:34;;;;;;;2.90;1.57;;;8.60;1.00;;;;;;8392863;28;20312;-72
2023/03/12 14:46:35;;;;;;;2.63;1.40;;;8.20;1.00;;;;;;8392128;28;20620;-73
2023/03/12 14:50:39;;;;;;;3.90;1.80;;;8.10;1.00;;;;;;8390004;28;20253;-71
2023/03/12 14:55:02;;;;;;;2.63;1.50;;;7.90;1.00;;;;;;8393929;28;20170;-72
2023/03/12 14:59:39;;;;;;;2.93;1.60;;;7.60;1.00;;;;;;8386595;28;20181;-71
2023/03/12 15:03:46;;;;;;;2.07;1.50;;;7.30;1.00;;;;;;8374494;28;20186;-72
2023/03/12 15:07:50;;;;;;;4.30;1.77;;;7.10;1.00;;;;;;8405230;28;20192;-72
2023/03/12 15:12:24;;;;;;;3.20;1.90;;;7.00;1.00;;;;;;8386078;28;20204;-72
2023/03/12 15:16:26;;;;;;;4.27;2.50;;;6.80;1.00;;;;;;8383886;28;20189;-74
2023/03/12 15:20:29;;;;;;;3.73;2.13;;;6.70;1.00;;;;;;8393315;28;20188;-72
2023/03/12 15:24:36;;;;;;;2.87;1.87;;;6.60;1.00;;;;;;8386369;28;20193;-74
2023/03/12 15:28:38;;;;;;;3.07;1.63;;;6.50;1.00;;;;;;8395746;28;20178;-73
2023/03/12 15:32:39;;;;;;;3.03;1.90;;;6.40;1.00;;;;;;8385214;28;20208;-73
2023/03/12 15:36:48;;;;;;;2.60;1.90;;;6.40;1.00;;;;;;8388341;28;20197;-73
2023/03/12 15:40:52;;;;;;;3.13;2.10;;;6.30;1.00;;;;;;8390847;28;20185;-73
2023/03/12 15:45:02;;;;;;;3.20;2.20;;;6.20;1.00;;;;;;8383403;28;20289;-73
2023/03/12 15:49:03;;;;;;;3.77;2.20;;;6.10;1.00;;;;;;8391146;28;20213;-72
2023/03/12 15:53:11;;;;;;;4.83;2.30;;;6.10;1.00;;;;;;8382510;28;20213;-73
2023/03/12 15:57:51;;;;;;;4.07;2.63;;;6.00;1.00;;;;;;8393330;28;20186;-73
2023/03/12 16:01:54;;;;;;;4.57;2.97;;;5.90;1.00;;;;;;8386558;28;20194;-73
2023/03/12 16:05:56;;;;;;;3.17;2.40;;;5.80;1.00;;;;;;8385088;28;20194;-73
2023/03/12 16:09:57;;;;;;;4.27;3.00;;;5.70;1.00;;;;;;8390756;28;20219;-74
2023/03/12 16:14:04;;;;;;;3.57;2.77;;;5.70;1.00;;;;;;8390336;28;20209;-73
2023/03/12 16:18:18;;;;;;;6.27;2.80;;;5.60;1.00;;;;;;8387662;28;20182;-74
2023/03/12 16:22:21;;;;;;;5.77;3.23;;;5.60;1.00;;;;;;8390156;28;20185;-73
2023/03/12 16:26:22;;;;;;;5.80;2.70;;;5.40;1.00;;;;;;8386914;28;20265;-73
2023/03/12 16:30:27;;;;;;;5.73;3.33;;;5.30;1.00;;;;;;8394233;28;20186;-73
2023/03/12 16:34:28;;;;;;;6.20;2.60;;;5.10;1.00;;;;;;8395056;28;20185;-73
2023/03/12 16:38:29;;;;;;;5.90;3.07;;;5.00;1.00;;;;;;8397007;28;20203;-74
2023/03/12 16:42:30;;;;;;;6.40;3.17;;;4.90;1.00;;;;;;8392207;28;20192;-73
2023/03/12 16:46:31;;;;;;;6.53;3.30;;;4.80;1.00;;;;;;8396198;28;20186;-73
2023/03/12 16:50:32;;;;;;;5.47;2.77;;;4.80;1.00;;;;;;8401674;28;20195;-73
2023/03/12 16:54:33;;;;;;;3.80;2.63;;;4.70;1.00;;;;;;8390609;28;20185;-74
2023/03/12 16:58:35;;;;;;;4.43;2.93;;;4.70;1.00;;;;;;8394918;28;20177;-72
2023/03/12 17:02:37;;;;;;;4.87;2.40;;;4.60;1.00;;;;;;8396431;28;20193;-73
2023/03/12 17:06:44;;;;;;;3.87;2.50;;;4.50;1.00;;;;;;8390586;28;20177;-73
2023/03/12 17:10:45;;;;;;;3.00;2.33;;;4.50;1.00;;;;;;8395482;28;20193;-73
2023/03/12 17:14:47;;;;;;;4.00;2.47;;;4.50;1.00;;;;;;8385266;28;20189;-74
2023/03/12 17:18:49;;;;;;;3.70;2.53;;;4.40;1.00;;;;;;8374691;28;20188;-73
2023/03/12 17:22:49;;;;;;;4.83;2.83;;;4.40;1.00;;;;;;8371002;28;20189;-69
2023/03/12 17:26:52;;;;;;;6.07;2.73;;;4.30;1.00;;;;;;8365697;28;20193;-68
2023/03/12 17:30:53;;;;;;;6.23;2.97;;;4.30;1.00;;;;;;8365161;28;20271;-68
2023/03/12 17:34:55;;;;;;;5.80;3.07;;;4.20;1.00;;;;;;8369627;28;20220;-68
2023/03/12 17:38:56;;;;;;;3.37;2.53;;;4.20;1.00;;;;;;8367488;28;20177;-69
2023/03/12 17:42:57;;;;;;;3.77;2.60;;;4.10;1.00;;;;;;8360743;28;20258;-69
2023/03/12 17:46:58;;;;;;;5.17;2.60;;;4.10;1.00;;;;;;8364882;28;20189;-69
2023/03/12 17:51:00;;;;;;;4.87;2.70;;;4.00;1.00;;;;;;8358393;28;20209;-68
2023/03/12 17:55:02;;;;;;;3.33;2.20;;;4.00;1.00;;;;;;8360512;28;20269;-69
2023/03/12 17:59:04;;;;;;;3.70;1.90;;;4.00;1.00;;;;;;8367882;28;20208;-69
2023/03/12 18:03:05;;;;;;;3.53;2.30;;;4.00;1.00;;;;;;8364240;28;20184;-69
2023/03/12 18:07:06;;;;;;;6.20;2.67;;;4.00;1.00;;;;;;8367895;28;20221;-69
2023/03/12 18:11:07;;;;;;;4.23;2.53;;;4.00;1.00;;;;;;8367364;28;20231;-68
2023/03/12 18:15:11;;;;;;;4.47;2.83;;;4.00;1.00;;;;;;8366811;28;20200;-68
2023/03/12 18:19:13;;;;;;;4.23;3.07;;;4.00;1.00;;;;;;8369565;28;20185;-69
2023/03/12 18:23:14;;;;;;;6.40;3.67;;;4.00;1.00;;;;;;8362950;28;20263;-68
2023/03/12 18:27:15;;;;;;;8.23;3.90;;;3.90;1.00;;;;;;8360182;28;20185;-68
2023/03/12 18:31:16;;;;;;;8.33;4.70;;;3.90;1.00;;;;;;8364405;28;20346;-68
2023/03/12 18:35:17;;;;;;;6.93;3.83;;;3.90;1.00;;;;;;8360651;28;20204;-68
2023/03/12 18:39:18;;;;;;;7.77;3.93;;;3.90;1.00;;;;;;8362329;28;20291;-69
2023/03/12 18:43:19;;;;;;;6.23;3.33;;;4.00;1.00;;;;;;8364084;28;20224;-68
2023/03/12 18:47:20;;;;;;;4.20;2.93;;;4.00;1.00;;;;;;8367438;28;20189;-69
2023/03/12 18:51:21;;;;;;;5.13;2.83;;;4.00;1.00;;;;;;8365094;28;20212;-68
2023/03/12 18:55:22;;;;;;;5.83;3.30;;;4.00;1.00;;;;;;8361376;28;20192;-68
2023/03/12 18:59:23;;;;;;;4.07;2.63;;;4.00;1.00;;;;;;8359988;28;20225;-69
2023/03/12 19:03:25;;;;;;;6.00;2.70;;;4.00;1.00;;;;;;8361247;28;20542;-69
2023/03/12 19:07:26;;;;;;;6.93;3.03;;;4.00;1.00;;;;;;8364479;28;20189;-68
2023/03/12 19:11:27;;;;;;;6.27;3.20;;;4.00;1.00;;;;;;8362089;28;20204;-70
2023/03/12 19:15:28;;;;;;;4.87;3.03;;;4.00;1.00;;;;;;8374404;28;20305;-69
2023/03/12 19:19:29;;;;;;;4.43;3.13;;;4.00;1.00;;;;;;8359889;28;20186;-68
2023/03/12 19:23:30;;;;;;;4.23;3.30;;;4.00;1.00;;;;;;8362429;28;20190;-69
2023/03/12 19:27:30;;;;;;;7.27;3.60;;;4.00;24.40;;;;;;8361976;28;20185;-68
2023/03/12 19:31:31;;;;;;;5.97;3.67;;;4.00;31.50;;;;;;8377744;28;20231;-70
2023/03/12 19:35:36;;;;;;;6.20;3.73;;;3.90;97.20;;;;;;8356527;28;20212;-70
2023/03/12 19:39:37;;;;;;;6.40;3.70;;;3.80;99.90;;;;;;8362349;28;20185;-68
2023/03/12 19:43:38;;;;;;;6.80;3.90;;;3.70;99.90;;;;;;8362265;28;20207;-69
2023/03/12 19:47:40;;;;;;;10.30;4.77;;;3.60;99.90;;;;;;8359972;28;20232;-70
2023/03/12 19:51:41;;;;;;;5.47;4.13;;;3.60;99.90;;;;;;8360567;28;20210;-69
2023/03/12 19:55:41;;;;;;;7.87;4.00;;;3.50;99.90;;;;;;8360039;28;20185;-69
2023/03/12 19:59:42;;;;;;;6.70;4.43;;;3.50;99.90;;;;;;8361473;28;20204;-70
2023/03/12 20:03:44;;;;;;;9.10;4.10;;;3.40;99.90;;;;;;8360974;28;20247;-71
2023/03/12 20:07:45;;;;;;;7.50;4.27;;;3.40;1.00;;;;;;8373769;28;20189;-71
2023/03/12 20:11:46;;;;;;;7.33;4.60;;;3.40;1.00;;;;;;8370827;28;21026;-70
2023/03/12 20:15:47;;;;;;;6.17;4.27;;;3.40;1.00;;;;;;8366572;28;20181;-70
2023/03/12 20:19:48;;;;;;;7.37;4.57;;;3.40;1.00;;;;;;8367323;28;20181;-69
2023/03/12 20:23:49;;;;;;;8.07;4.97;;;3.40;1.00;;;;;;8366087;28;20447;-70
2023/03/12 20:27:49;;;;;;;9.13;5.03;;;3.40;99.90;;;;;;8368013;28;20189;-71
2023/03/12 20:31:50;;;;;;;6.53;4.67;;;3.50;99.90;;;;;;8367308;28;20209;-71
2023/03/12 20:35:51;;;;;;;7.17;4.70;;;3.50;1.00;;;;;;8365806;28;20229;-67
2023/03/12 20:39:52;;;;;;;6.63;4.10;;;3.60;99.90;;;;;;8367270;28;20185;-69
2023/03/12 20:43:58;;;;;;;6.97;5.30;;;3.70;99.90;;;;;;8365209;28;20201;-71
2023/03/12 20:47:59;;;;;;;8.10;4.87;;;3.80;1.00;;;;;;8364312;28;20193;-71
2023/03/12 20:52:00;;;;;;;7.27;5.40;;;3.90;99.90;;;;;;8367176;28;20205;-69
2023/03/12 20:56:01;;;;;;;7.97;5.57;;;3.90;99.90;;;;;;8369125;28;20205;-69
2023/03/12 21:00:04;;;;;;;6.03;5.27;;;3.90;1.00;;;;;;8372873;28;20199;-69
2023/03/12 21:04:05;;;;;;;7.57;5.73;;;3.90;18.10;;;;;;8367039;28;20185;-69
2023/03/12 21:08:06;;;;;;;7.10;5.40;;;3.90;99.90;;;;;;8367149;28;20204;-70
2023/03/12 21:12:07;;;;;;;6.63;5.57;;;4.00;1.00;;;;;;8361491;28;20279;-70
2023/03/12 21:16:10;;;;;;;8.60;6.03;;;4.00;99.90;;;;;;8360593;28;20242;-69
2023/03/12 21:20:15;;;;;;;6.53;5.37;;;4.10;1.00;;;;;;8364559;28;20251;-71
2023/03/12 21:24:16;;;;;;;8.10;5.53;;;4.10;1.00;;;;;;8366304;28;20189;-69
2023/03/12 21:28:17;;;;;;;6.83;5.50;;;4.10;99.90;;;;;;8361738;28;20194;-69
2023/03/12 21:32:20;;;;;;;12.33;5.23;;;4.20;1.00;;;;;;8365946;28;20214;-70
2023/03/12 21:36:21;;;;;;;7.17;5.43;;;4.30;1.00;;;;;;8367361;28;20237;-70
2023/03/12 21:40:23;;;;;;;5.83;4.73;;;4.30;1.00;;;;;;8367949;28;20185;-70
2023/03/12 21:44:24;;;;;;;8.63;5.87;;;4.40;99.90;;;;;;8367213;28;20212;-70
2023/03/12 21:48:24;;;;;;;6.87;5.40;;;4.40;99.90;;;;;;8364035;28;20197;-71
2023/03/12 21:52:25;;;;;;;5.77;4.30;;;4.50;1.30;;;;;;8365264;28;20213;-70
2023/03/12 21:56:29;;;;;;;5.80;4.77;;;4.60;1.00;;;;;;8365132;28;20278;-70
2023/03/12 22:00:30;;;;;;;6.40;4.67;;;4.60;99.90;;;;;;8367007;28;20294;-70
2023/03/12 22:04:31;;;;;;;7.50;4.60;;;4.60;1.00;;;;;;8368869;28;20280;-69
2023/03/12 22:08:32;;;;;;;6.60;5.10;;;4.70;40.40;;;;;;8363376;28;20204;-68
2023/03/12 22:12:33;;;;;;;8.93;4.57;;;4.70;1.00;;;;;;8361608;28;20217;-69
2023/03/12 22:16:35;;;;;;;7.77;5.23;;;4.70;1.00;;;;;;8368266;28;20193;-71
2023/03/12 22:20:36;;;;;;;5.87;4.50;;;4.80;99.90;;;;;;8363300;28;20186;-69
2023/03/12 22:24:37;;;;;;;8.43;4.90;;;5.00;1.00;;;;;;8361980;28;20188;-70
2023/03/12 22:28:38;;;;;;;6.73;4.50;;;5.10;99.90;;;;;;8364984;28;20189;-69
2023/03/12 22:32:39;;;;;;;6.87;4.40;;;5.10;86.20;;;;;;8365335;28;20212;-69
2023/03/12 22:36:43;;;;;;;7.33;4.40;;;5.20;1.00;;;;;;8364251;28;20210;-70
2023/03/12 22:40:44;;;;;;;5.97;4.27;;;5.10;1.00;;;;;;8380398;28;20202;-69
2023/03/12 22:44:45;;;;;;;5.87;3.53;;;5.10;8.20;;;;;;8364973;28;20198;-68
2023/03/12 22:48:50;;;;;;;6.70;4.10;;;5.10;65.00;;;;;;8365107;28;20190;-71
2023/03/12 22:52:51;;;;;;;5.77;4.20;;;5.00;99.90;;;;;;8363797;28;20319;-70
2023/03/12 22:56:52;;;;;;;7.23;4.53;;;5.00;99.90;;;;;;8363681;28;20194;-69
2023/03/12 23:01:03;;;;;;;6.10;4.30;;;5.00;99.90;;;;;;8362045;28;20189;-70
2023/03/12 23:05:05;;;;;;;5.47;3.70;;;5.00;99.90;;;;;;8370232;28;20190;-70
2023/03/12 23:09:06;;;;;;;5.30;3.60;;;5.00;99.90;;;;;;8361568;28;20196;-69
2023/03/12 23:13:09;;;;;;;5.67;3.70;;;4.90;99.90;;;;;;8361231;28;20205;-70
2023/03/12 23:17:10;;;;;;;4.23;3.10;;;4.90;99.90;;;;;;8368516;28;20182;-70
2023/03/12 23:21:17;;;;;;;8.30;4.00;;;4.90;1.00;;;;;;8361142;28;20261;-69
2023/03/12 23:25:18;;;;;;;5.40;4.23;;;5.00;1.00;;;;;;8360161;28;20197;-69
2023/03/12 23:29:19;;;;;;;6.20;3.80;;;5.10;99.90;;;;;;8359623;28;20185;-68
2023/03/12 23:33:20;;;;;;;5.00;3.50;;;5.10;99.90;;;;;;8360387;28;20240;-65
2023/03/12 23:37:21;;;;;;;6.40;3.60;;;5.20;99.90;;;;;;8363714;28;20198;-65
2023/03/12 23:41:30;;;;;;;5.33;3.93;;;5.30;99.90;;;;;;8365529;28;20189;-63